sensor_id;sensor_type;location;lat;lon;timestamp;temperature;humidity
336;DHT22;156;48.738;9.228;2023-04-15T00:01:22;7.20;1.00
336;DHT22;156;48.738;9.228;2023-04-15T00:04:00;7.50;1.00
336;DHT22;156;48.738;9.228;2023-04-15T00:06:29;7.20;1.00
336;DHT22;156;48.738;9.228;2023-04-15T00:09:03;7.20;1.00
336;DHT22;156;48.738;9.228;2023-04-15T00:11:32;7.20;1.00
336;DHT22;156;48.738;9.228;2023-04-15T00:14:03;7.20;1.00
336;DHT22;156;48.738;9.228;2023-04-15T00:16:30;7.20;1.00
336;DHT22;156;48.738;9.228;2023-04-15T00:18:58;7.20;1.00
336;DHT22;156;48.738;9.228;2023-04-15T00:21:25;7.10;1.00
336;DHT22;156;48.738;9.228;2023-04-15T00:23:52;7.10;1.00
336;DHT22;156;48.738;9.228;2023-04-15T00:26:21;6.90;1.00
336;DHT22;156;48.738;9.228;2023-04-15T00:28:48;6.80;1.00
336;DHT22;156;48.738;9.228;2023-04-15T00:31:17;6.70;1.00
336;DHT22;156;48.738;9.228;2023-04-15T00:33:44;6.70;1.00
336;DHT22;156;48.738;9.228;2023-04-15T00:36:13;6.60;1.00
336;DHT22;156;48.738;9.228;2023-04-15T00:38:42;6.60;1.00
336;DHT22;156;48.738;9.228;2023-04-15T00:41:10;6.70;1.00
336;DHT22;156;48.738;9.228;2023-04-15T00:43:37;6.70;1.00
336;DHT22;156;48.738;9.228;2023-04-15T00:46:05;6.70;1.00
336;DHT22;156;48.738;9.228;2023-04-15T00:48:41;6.60;1.00
336;DHT22;156;48.738;9.228;2023-04-15T00:51:08;6.40;1.00
336;DHT22;156;48.738;9.228;2023-04-15T00:53:35;6.40;1.00
336;DHT22;156;48.738;9.228;2023-04-15T00:56:04;6.20;1.00
336;DHT22;156;48.738;9.228;2023-04-15T00:58:31;6.30;1.00
336;DHT22;156;48.738;9.228;2023-04-15T01:01:01;6.40;1.00
336;DHT22;156;48.738;9.228;2023-04-15T01:03:29;6.50;1.00
336;DHT22;156;48.738;9.228;2023-04-15T01:05:59;6.50;1.00
336;DHT22;156;48.738;9.228;2023-04-15T01:08:27;6.50;1.00
336;DHT22;156;48.738;9.228;2023-04-15T01:10:55;6.50;1.00
336;DHT22;156;48.738;9.228;2023-04-15T01:13:24;6.50;1.00
336;DHT22;156;48.738;9.228;2023-04-15T01:15:52;6.40;1.00
336;DHT22;156;48.738;9.228;2023-04-15T01:18:20;6.40;1.00
336;DHT22;156;48.738;9.228;2023-04-15T01:20:47;6.40;1.00
336;DHT22;156;48.738;9.228;2023-04-15T01:23:16;6.40;1.00
336;DHT22;156;48.738;9.228;2023-04-15T01:25:53;6.40;1.00
336;DHT22;156;48.738;9.228;2023-04-15T01:28:20;6.30;1.00
336;DHT22;156;48.738;9.228;2023-04-15T01:30:49;6.30;1.00
336;DHT22;156;48.738;9.228;2023-04-15T01:33:19;6.30;1.00
336;DHT22;156;48.738;9.228;2023-04-15T01:35:46;6.30;1.00
336;DHT22;156;48.738;9.228;2023-04-15T01:38:14;6.20;1.00
336;DHT22;156;48.738;9.228;2023-04-15T01:40:46;6.20;1.00
336;DHT22;156;48.738;9.228;2023-04-15T01:43:16;6.20;1.00
336;DHT22;156;48.738;9.228;2023-04-15T01:45:43;6.20;1.00
336;DHT22;156;48.738;9.228;2023-04-15T01:48:10;6.20;1.00
336;DHT22;156;48.738;9.228;2023-04-15T01:50:37;6.20;1.00
336;DHT22;156;48.738;9.228;2023-04-15T01:53:04;6.20;1.00
336;DHT22;156;48.738;9.228;2023-04-15T01:55:31;6.20;1.00
336;DHT22;156;48.738;9.228;2023-04-15T01:57:58;6.20;1.00
336;DHT22;156;48.738;9.228;2023-04-15T02:00:27;6.20;1.00
336;DHT22;156;48.738;9.228;2023-04-15T02:02:58;6.20;1.00
336;DHT22;156;48.738;9.228;2023-04-15T02:05:25;6.10;1.00
336;DHT22;156;48.738;9.228;2023-04-15T02:07:56;6.10;1.00
336;DHT22;156;48.738;9.228;2023-04-15T02:10:23;6.10;1.00
336;DHT22;156;48.738;9.228;2023-04-15T02:12:50;6.10;1.00
336;DHT22;156;48.738;9.228;2023-04-15T02:15:17;6.10;1.00
336;DHT22;156;48.738;9.228;2023-04-15T02:17:46;6.10;1.00
336;DHT22;156;48.738;9.228;2023-04-15T02:20:18;6.00;1.00
336;DHT22;156;48.738;9.228;2023-04-15T02:22:48;5.90;1.00
336;DHT22;156;48.738;9.228;2023-04-15T02:25:15;5.70;1.00
336;DHT22;156;48.738;9.228;2023-04-15T02:27:42;5.60;1.00
336;DHT22;156;48.738;9.228;2023-04-15T02:30:10;5.50;1.00
336;DHT22;156;48.738;9.228;2023-04-15T02:32:37;5.40;1.00
336;DHT22;156;48.738;9.228;2023-04-15T02:35:07;5.40;1.00
336;DHT22;156;48.738;9.228;2023-04-15T02:37:37;5.30;1.00
336;DHT22;156;48.738;9.228;2023-04-15T02:40:08;5.30;1.00
336;DHT22;156;48.738;9.228;2023-04-15T02:42:37;5.30;1.00
336;DHT22;156;48.738;9.228;2023-04-15T02:45:05;5.30;1.00
336;DHT22;156;48.738;9.228;2023-04-15T02:47:32;5.30;1.00
336;DHT22;156;48.738;9.228;2023-04-15T02:49:59;5.30;1.00
336;DHT22;156;48.738;9.228;2023-04-15T02:52:28;5.20;1.00
336;DHT22;156;48.738;9.228;2023-04-15T02:54:55;5.20;1.00
336;DHT22;156;48.738;9.228;2023-04-15T02:57:25;5.20;1.00
336;DHT22;156;48.738;9.228;2023-04-15T02:59:53;5.30;1.00
336;DHT22;156;48.738;9.228;2023-04-15T03:02:20;5.40;1.00
336;DHT22;156;48.738;9.228;2023-04-15T03:04:46;5.50;1.00
336;DHT22;156;48.738;9.228;2023-04-15T03:07:19;5.50;1.00
336;DHT22;156;48.738;9.228;2023-04-15T03:09:47;5.50;1.00
336;DHT22;156;48.738;9.228;2023-04-15T03:12:14;5.50;1.00
336;DHT22;156;48.738;9.228;2023-04-15T03:14:41;5.40;1.00
336;DHT22;156;48.738;9.228;2023-04-15T03:17:08;5.40;1.00
336;DHT22;156;48.738;9.228;2023-04-15T03:19:35;5.40;1.00
336;DHT22;156;48.738;9.228;2023-04-15T03:22:04;5.40;1.00
336;DHT22;156;48.738;9.228;2023-04-15T03:24:31;5.40;1.00
336;DHT22;156;48.738;9.228;2023-04-15T03:26:59;5.50;1.00
336;DHT22;156;48.738;9.228;2023-04-15T03:29:26;5.60;1.00
336;DHT22;156;48.738;9.228;2023-04-15T03:31:53;5.60;1.00
336;DHT22;156;48.738;9.228;2023-04-15T03:34:22;5.60;1.00
336;DHT22;156;48.738;9.228;2023-04-15T03:36:49;5.50;1.00
336;DHT22;156;48.738;9.228;2023-04-15T03:39:19;5.40;1.00
336;DHT22;156;48.738;9.228;2023-04-15T03:41:54;5.40;1.00
336;DHT22;156;48.738;9.228;2023-04-15T03:44:24;5.30;1.00
336;DHT22;156;48.738;9.228;2023-04-15T03:46:53;5.00;1.00
336;DHT22;156;48.738;9.228;2023-04-15T03:49:20;4.90;1.00
336;DHT22;156;48.738;9.228;2023-04-15T03:51:47;4.90;1.00
336;DHT22;156;48.738;9.228;2023-04-15T03:54:19;4.90;1.00
336;DHT22;156;48.738;9.228;2023-04-15T03:56:46;4.80;1.00
336;DHT22;156;48.738;9.228;2023-04-15T03:59:13;4.70;1.00
336;DHT22;156;48.738;9.228;2023-04-15T04:01:41;4.30;1.00
336;DHT22;156;48.738;9.228;2023-04-15T04:04:08;4.10;1.00
336;DHT22;156;48.738;9.228;2023-04-15T04:06:35;4.10;1.00
336;DHT22;156;48.738;9.228;2023-04-15T04:09:02;4.20;1.00
336;DHT22;156;48.738;9.228;2023-04-15T04:11:37;4.30;1.00
336;DHT22;156;48.738;9.228;2023-04-15T04:14:10;4.40;1.00
336;DHT22;156;48.738;9.228;2023-04-15T04:16:41;4.30;1.00
336;DHT22;156;48.738;9.228;2023-04-15T04:19:07;4.30;1.00
336;DHT22;156;48.738;9.228;2023-04-15T04:21:35;4.40;1.00
336;DHT22;156;48.738;9.228;2023-04-15T04:24:03;4.40;1.00
336;DHT22;156;48.738;9.228;2023-04-15T04:26:30;4.40;1.00
336;DHT22;156;48.738;9.228;2023-04-15T04:28:57;4.40;1.00
336;DHT22;156;48.738;9.228;2023-04-15T04:31:24;4.40;1.00
336;DHT22;156;48.738;9.228;2023-04-15T04:33:52;4.40;1.00
336;DHT22;156;48.738;9.228;2023-04-15T04:36:19;4.40;1.00
336;DHT22;156;48.738;9.228;2023-04-15T04:38:46;4.40;1.00
336;DHT22;156;48.738;9.228;2023-04-15T04:41:16;4.20;1.00
336;DHT22;156;48.738;9.228;2023-04-15T04:43:48;4.10;1.00
336;DHT22;156;48.738;9.228;2023-04-15T04:46:18;4.10;1.00
336;DHT22;156;48.738;9.228;2023-04-15T04:48:45;4.00;1.00
336;DHT22;156;48.738;9.228;2023-04-15T04:51:13;3.90;1.00
336;DHT22;156;48.738;9.228;2023-04-15T04:53:40;3.80;1.00
336;DHT22;156;48.738;9.228;2023-04-15T04:56:07;3.80;1.00
336;DHT22;156;48.738;9.228;2023-04-15T04:58:37;3.90;1.00
336;DHT22;156;48.738;9.228;2023-04-15T05:01:06;3.70;1.00
336;DHT22;156;48.738;9.228;2023-04-15T05:03:33;3.70;1.00
336;DHT22;156;48.738;9.228;2023-04-15T05:06:01;3.50;1.00
336;DHT22;156;48.738;9.228;2023-04-15T05:08:32;3.50;1.00
336;DHT22;156;48.738;9.228;2023-04-15T05:11:02;3.50;1.00
336;DHT22;156;48.738;9.228;2023-04-15T05:13:36;3.50;1.00
336;DHT22;156;48.738;9.228;2023-04-15T05:16:08;3.50;1.00
336;DHT22;156;48.738;9.228;2023-04-15T05:18:38;3.50;1.00
336;DHT22;156;48.738;9.228;2023-04-15T05:21:05;3.40;1.00
336;DHT22;156;48.738;9.228;2023-04-15T05:23:34;3.40;1.00
336;DHT22;156;48.738;9.228;2023-04-15T05:26:02;3.40;1.00
336;DHT22;156;48.738;9.228;2023-04-15T05:28:32;3.20;1.00
336;DHT22;156;48.738;9.228;2023-04-15T05:31:00;3.20;1.00
336;DHT22;156;48.738;9.228;2023-04-15T05:33:29;4.20;1.00
336;DHT22;156;48.738;9.228;2023-04-15T05:35:58;3.50;1.00
336;DHT22;156;48.738;9.228;2023-04-15T05:38:28;3.20;1.00
336;DHT22;156;48.738;9.228;2023-04-15T05:41:00;3.20;1.00
336;DHT22;156;48.738;9.228;2023-04-15T05:43:27;4.10;1.00
336;DHT22;156;48.738;9.228;2023-04-15T05:45:57;3.10;1.00
336;DHT22;156;48.738;9.228;2023-04-15T05:48:24;3.10;1.00
336;DHT22;156;48.738;9.228;2023-04-15T05:50:51;3.10;1.00
336;DHT22;156;48.738;9.228;2023-04-15T05:53:20;3.20;1.00
336;DHT22;156;48.738;9.228;2023-04-15T05:55:47;3.30;1.00
336;DHT22;156;48.738;9.228;2023-04-15T05:58:16;3.40;1.00
336;DHT22;156;48.738;9.228;2023-04-15T06:00:43;3.50;1.00
336;DHT22;156;48.738;9.228;2023-04-15T06:03:10;3.60;1.00
336;DHT22;156;48.738;9.228;2023-04-15T06:05:37;3.70;1.00
336;DHT22;156;48.738;9.228;2023-04-15T06:08:05;3.80;1.00
336;DHT22;156;48.738;9.228;2023-04-15T06:10:34;4.00;1.00
336;DHT22;156;48.738;9.228;2023-04-15T06:13:01;4.10;1.00
336;DHT22;156;48.738;9.228;2023-04-15T06:15:30;4.20;1.00
336;DHT22;156;48.738;9.228;2023-04-15T06:17:57;4.30;1.00
336;DHT22;156;48.738;9.228;2023-04-15T06:20:24;4.40;1.00
336;DHT22;156;48.738;9.228;2023-04-15T06:22:51;4.50;1.00
336;DHT22;156;48.738;9.228;2023-04-15T06:25:18;4.70;1.00
336;DHT22;156;48.738;9.228;2023-04-15T06:27:45;4.90;1.00
336;DHT22;156;48.738;9.228;2023-04-15T06:30:13;5.00;1.00
336;DHT22;156;48.738;9.228;2023-04-15T06:32:41;5.20;1.00
336;DHT22;156;48.738;9.228;2023-04-15T06:35:08;5.40;1.00
336;DHT22;156;48.738;9.228;2023-04-15T06:37:36;5.60;1.00
336;DHT22;156;48.738;9.228;2023-04-15T06:40:03;5.70;1.00
336;DHT22;156;48.738;9.228;2023-04-15T06:42:32;5.90;1.00
336;DHT22;156;48.738;9.228;2023-04-15T06:44:59;6.00;1.00
336;DHT22;156;48.738;9.228;2023-04-15T06:47:26;6.10;1.00
336;DHT22;156;48.738;9.228;2023-04-15T06:49:54;6.20;1.00
336;DHT22;156;48.738;9.228;2023-04-15T06:52:23;6.30;1.00
336;DHT22;156;48.738;9.228;2023-04-15T06:54:52;6.10;1.00
336;DHT22;156;48.738;9.228;2023-04-15T06:57:21;6.00;1.00
336;DHT22;156;48.738;9.228;2023-04-15T06:59:53;6.10;1.00
336;DHT22;156;48.738;9.228;2023-04-15T07:02:23;6.30;1.00
336;DHT22;156;48.738;9.228;2023-04-15T07:04:50;6.20;1.00
336;DHT22;156;48.738;9.228;2023-04-15T07:07:21;6.20;1.00
336;DHT22;156;48.738;9.228;2023-04-15T07:09:48;6.40;1.00
336;DHT22;156;48.738;9.228;2023-04-15T07:12:15;6.70;1.00
336;DHT22;156;48.738;9.228;2023-04-15T07:14:44;6.80;1.00
336;DHT22;156;48.738;9.228;2023-04-15T07:17:11;6.90;1.00
336;DHT22;156;48.738;9.228;2023-04-15T07:19:38;7.10;1.00
336;DHT22;156;48.738;9.228;2023-04-15T07:22:05;7.20;1.00
336;DHT22;156;48.738;9.228;2023-04-15T07:24:36;7.40;1.00
336;DHT22;156;48.738;9.228;2023-04-15T07:27:03;7.40;1.00
336;DHT22;156;48.738;9.228;2023-04-15T07:29:30;7.40;1.00
336;DHT22;156;48.738;9.228;2023-04-15T07:32:00;7.50;1.00
336;DHT22;156;48.738;9.228;2023-04-15T07:34:27;7.50;1.00
336;DHT22;156;48.738;9.228;2023-04-15T07:36:54;7.70;1.00
336;DHT22;156;48.738;9.228;2023-04-15T07:39:23;7.80;1.00
336;DHT22;156;48.738;9.228;2023-04-15T07:41:51;7.80;1.00
336;DHT22;156;48.738;9.228;2023-04-15T07:44:22;7.90;1.00
336;DHT22;156;48.738;9.228;2023-04-15T07:46:53;7.80;1.00
336;DHT22;156;48.738;9.228;2023-04-15T07:49:20;7.60;1.00
336;DHT22;156;48.738;9.228;2023-04-15T07:51:47;7.60;1.00
336;DHT22;156;48.738;9.228;2023-04-15T07:54:20;7.70;1.00
336;DHT22;156;48.738;9.228;2023-04-15T07:56:48;7.60;1.00
336;DHT22;156;48.738;9.228;2023-04-15T07:59:21;7.70;1.00
336;DHT22;156;48.738;9.228;2023-04-15T08:01:54;7.80;1.00
336;DHT22;156;48.738;9.228;2023-04-15T08:04:25;8.00;1.00
336;DHT22;156;48.738;9.228;2023-04-15T08:06:51;8.00;1.00
336;DHT22;156;48.738;9.228;2023-04-15T08:09:22;8.20;1.00
336;DHT22;156;48.738;9.228;2023-04-15T08:11:49;8.40;1.00
336;DHT22;156;48.738;9.228;2023-04-15T08:14:20;8.50;1.00
336;DHT22;156;48.738;9.228;2023-04-15T08:16:48;8.80;1.00
336;DHT22;156;48.738;9.228;2023-04-15T08:19:16;8.90;1.00
336;DHT22;156;48.738;9.228;2023-04-15T08:21:42;9.10;1.00
336;DHT22;156;48.738;9.228;2023-04-15T08:24:18;9.30;1.00
336;DHT22;156;48.738;9.228;2023-04-15T08:26:46;9.30;1.00
336;DHT22;156;48.738;9.228;2023-04-15T08:29:25;9.20;1.00
336;DHT22;156;48.738;9.228;2023-04-15T08:31:57;9.50;1.00
336;DHT22;156;48.738;9.228;2023-04-15T08:34:24;9.60;1.00
336;DHT22;156;48.738;9.228;2023-04-15T08:36:53;9.70;1.00
336;DHT22;156;48.738;9.228;2023-04-15T08:39:23;9.80;1.00
336;DHT22;156;48.738;9.228;2023-04-15T08:41:58;10.10;1.00
336;DHT22;156;48.738;9.228;2023-04-15T08:44:28;10.30;1.00
336;DHT22;156;48.738;9.228;2023-04-15T08:47:03;10.40;1.00
336;DHT22;156;48.738;9.228;2023-04-15T08:49:39;10.60;1.00
336;DHT22;156;48.738;9.228;2023-04-15T08:52:08;10.90;1.00
336;DHT22;156;48.738;9.228;2023-04-15T08:54:36;10.90;1.00
336;DHT22;156;48.738;9.228;2023-04-15T08:57:04;10.90;1.00
336;DHT22;156;48.738;9.228;2023-04-15T08:59:34;11.10;1.00
336;DHT22;156;48.738;9.228;2023-04-15T09:02:03;11.20;1.00
336;DHT22;156;48.738;9.228;2023-04-15T09:04:33;11.30;1.00
336;DHT22;156;48.738;9.228;2023-04-15T09:07:15;11.30;1.00
336;DHT22;156;48.738;9.228;2023-04-15T09:09:53;11.20;1.00
336;DHT22;156;48.738;9.228;2023-04-15T09:12:21;11.30;1.00
336;DHT22;156;48.738;9.228;2023-04-15T09:14:51;11.60;1.00
336;DHT22;156;48.738;9.228;2023-04-15T09:17:24;11.70;1.00
336;DHT22;156;48.738;9.228;2023-04-15T09:20:07;11.60;1.00
336;DHT22;156;48.738;9.228;2023-04-15T09:22:39;11.70;1.00
336;DHT22;156;48.738;9.228;2023-04-15T09:25:28;11.70;1.00
336;DHT22;156;48.738;9.228;2023-04-15T09:28:03;11.70;1.00
336;DHT22;156;48.738;9.228;2023-04-15T09:30:37;11.70;1.00
336;DHT22;156;48.738;9.228;2023-04-15T09:33:05;11.90;1.00
336;DHT22;156;48.738;9.228;2023-04-15T09:35:33;11.90;1.00
336;DHT22;156;48.738;9.228;2023-04-15T09:38:03;11.90;1.00
336;DHT22;156;48.738;9.228;2023-04-15T09:40:35;11.90;1.00
336;DHT22;156;48.738;9.228;2023-04-15T09:43:03;12.00;1.00
336;DHT22;156;48.738;9.228;2023-04-15T09:45:36;12.10;1.00
336;DHT22;156;48.738;9.228;2023-04-15T09:48:18;12.10;1.00
336;DHT22;156;48.738;9.228;2023-04-15T09:50:47;12.20;1.00
336;DHT22;156;48.738;9.228;2023-04-15T09:53:16;12.30;1.00
336;DHT22;156;48.738;9.228;2023-04-15T09:55:48;12.30;1.00
336;DHT22;156;48.738;9.228;2023-04-15T09:58:19;12.40;1.00
336;DHT22;156;48.738;9.228;2023-04-15T10:00:49;12.40;1.00
336;DHT22;156;48.738;9.228;2023-04-15T10:03:20;12.60;1.00
336;DHT22;156;48.738;9.228;2023-04-15T10:05:53;12.60;1.00
336;DHT22;156;48.738;9.228;2023-04-15T10:08:22;12.50;1.00
336;DHT22;156;48.738;9.228;2023-04-15T10:10:50;12.40;1.00
336;DHT22;156;48.738;9.228;2023-04-15T10:13:19;12.50;1.00
336;DHT22;156;48.738;9.228;2023-04-15T10:15:50;12.50;1.00
336;DHT22;156;48.738;9.228;2023-04-15T10:18:21;12.40;1.00
336;DHT22;156;48.738;9.228;2023-04-15T10:20:49;12.50;1.00
336;DHT22;156;48.738;9.228;2023-04-15T10:23:17;12.50;1.00
336;DHT22;156;48.738;9.228;2023-04-15T10:25:45;12.60;1.00
336;DHT22;156;48.738;9.228;2023-04-15T10:28:12;12.70;1.00
336;DHT22;156;48.738;9.228;2023-04-15T10:30:40;12.50;1.00
336;DHT22;156;48.738;9.228;2023-04-15T10:33:10;12.60;1.00
336;DHT22;156;48.738;9.228;2023-04-15T10:35:38;12.60;1.00
336;DHT22;156;48.738;9.228;2023-04-15T10:38:32;12.60;1.00
336;DHT22;156;48.738;9.228;2023-04-15T10:41:15;12.60;1.00
336;DHT22;156;48.738;9.228;2023-04-15T10:43:48;12.60;1.00
336;DHT22;156;48.738;9.228;2023-04-15T10:46:18;12.70;1.00
336;DHT22;156;48.738;9.228;2023-04-15T10:48:51;12.80;1.00
336;DHT22;156;48.738;9.228;2023-04-15T10:51:29;13.00;1.00
336;DHT22;156;48.738;9.228;2023-04-15T10:53:57;13.20;1.00
336;DHT22;156;48.738;9.228;2023-04-15T10:56:26;13.20;1.00
336;DHT22;156;48.738;9.228;2023-04-15T10:58:53;13.30;1.00
336;DHT22;156;48.738;9.228;2023-04-15T11:01:21;13.20;1.00
336;DHT22;156;48.738;9.228;2023-04-15T11:03:50;13.20;1.00
336;DHT22;156;48.738;9.228;2023-04-15T11:06:17;12.80;1.00
336;DHT22;156;48.738;9.228;2023-04-15T11:08:57;12.70;1.00
336;DHT22;156;48.738;9.228;2023-04-15T11:14:40;12.80;1.00
336;DHT22;156;48.738;9.228;2023-04-15T11:17:07;12.90;1.00
336;DHT22;156;48.738;9.228;2023-04-15T11:19:38;13.00;1.00
336;DHT22;156;48.738;9.228;2023-04-15T11:22:07;12.80;1.00
336;DHT22;156;48.738;9.228;2023-04-15T11:24:34;12.80;1.00
336;DHT22;156;48.738;9.228;2023-04-15T11:27:01;12.70;1.00
336;DHT22;156;48.738;9.228;2023-04-15T11:29:31;12.90;1.00
336;DHT22;156;48.738;9.228;2023-04-15T11:32:07;13.10;1.00
336;DHT22;156;48.738;9.228;2023-04-15T11:34:34;12.90;1.00
336;DHT22;156;48.738;9.228;2023-04-15T11:37:04;13.10;1.00
336;DHT22;156;48.738;9.228;2023-04-15T11:39:35;13.20;1.00
336;DHT22;156;48.738;9.228;2023-04-15T11:42:18;13.30;1.00
336;DHT22;156;48.738;9.228;2023-04-15T11:44:46;13.10;1.00
336;DHT22;156;48.738;9.228;2023-04-15T11:49:58;12.90;1.00
336;DHT22;156;48.738;9.228;2023-04-15T11:52:42;12.90;1.00
336;DHT22;156;48.738;9.228;2023-04-15T11:55:17;13.00;1.00
336;DHT22;156;48.738;9.228;2023-04-15T11:57:44;12.80;1.00
336;DHT22;156;48.738;9.228;2023-04-15T12:00:12;12.50;1.00
336;DHT22;156;48.738;9.228;2023-04-15T12:02:40;12.20;1.00
336;DHT22;156;48.738;9.228;2023-04-15T12:05:10;12.10;1.00
336;DHT22;156;48.738;9.228;2023-04-15T12:07:57;11.90;1.00
336;DHT22;156;48.738;9.228;2023-04-15T12:10:24;12.00;1.00
336;DHT22;156;48.738;9.228;2023-04-15T12:12:52;12.00;1.00
336;DHT22;156;48.738;9.228;2023-04-15T12:15:21;12.10;1.00
336;DHT22;156;48.738;9.228;2023-04-15T12:17:48;12.10;1.00
336;DHT22;156;48.738;9.228;2023-04-15T12:20:20;12.30;1.00
336;DHT22;156;48.738;9.228;2023-04-15T12:22:48;12.50;1.00
336;DHT22;156;48.738;9.228;2023-04-15T12:25:16;12.50;1.00
336;DHT22;156;48.738;9.228;2023-04-15T12:27:50;12.50;1.00
336;DHT22;156;48.738;9.228;2023-04-15T12:30:18;12.40;1.00
336;DHT22;156;48.738;9.228;2023-04-15T12:32:45;12.40;1.00
336;DHT22;156;48.738;9.228;2023-04-15T12:35:18;12.20;1.00
336;DHT22;156;48.738;9.228;2023-04-15T12:37:46;12.10;1.00
336;DHT22;156;48.738;9.228;2023-04-15T12:40:13;11.90;1.00
336;DHT22;156;48.738;9.228;2023-04-15T12:42:45;10.90;1.00
336;DHT22;156;48.738;9.228;2023-04-15T12:45:12;10.60;1.00
336;DHT22;156;48.738;9.228;2023-04-15T12:47:42;10.60;1.00
336;DHT22;156;48.738;9.228;2023-04-15T12:50:14;10.20;1.00
336;DHT22;156;48.738;9.228;2023-04-15T12:52:43;9.60;1.00
336;DHT22;156;48.738;9.228;2023-04-15T12:55:15;9.30;1.00
336;DHT22;156;48.738;9.228;2023-04-15T12:57:54;9.30;1.00
336;DHT22;156;48.738;9.228;2023-04-15T13:00:33;9.10;1.00
336;DHT22;156;48.738;9.228;2023-04-15T13:06:58;9.50;1.00
336;DHT22;156;48.738;9.228;2023-04-15T13:09:46;9.20;1.00
336;DHT22;156;48.738;9.228;2023-04-15T13:12:18;9.30;1.00
336;DHT22;156;48.738;9.228;2023-04-15T13:14:47;9.40;1.00
336;DHT22;156;48.738;9.228;2023-04-15T13:17:14;9.50;1.00
336;DHT22;156;48.738;9.228;2023-04-15T13:19:45;9.70;1.00
336;DHT22;156;48.738;9.228;2023-04-15T13:22:12;9.90;1.00
336;DHT22;156;48.738;9.228;2023-04-15T13:24:42;10.10;1.00
336;DHT22;156;48.738;9.228;2023-04-15T13:27:08;10.30;1.00
336;DHT22;156;48.738;9.228;2023-04-15T13:29:35;10.30;1.00
336;DHT22;156;48.738;9.228;2023-04-15T13:32:05;10.40;1.00
336;DHT22;156;48.738;9.228;2023-04-15T13:34:34;10.50;1.00
336;DHT22;156;48.738;9.228;2023-04-15T13:37:05;10.60;1.00
336;DHT22;156;48.738;9.228;2023-04-15T13:39:32;10.60;1.00
336;DHT22;156;48.738;9.228;2023-04-15T13:45:11;11.00;1.00
336;DHT22;156;48.738;9.228;2023-04-15T13:47:43;11.20;1.00
336;DHT22;156;48.738;9.228;2023-04-15T13:50:11;11.20;1.00
336;DHT22;156;48.738;9.228;2023-04-15T13:52:39;11.10;1.00
336;DHT22;156;48.738;9.228;2023-04-15T13:55:07;11.30;1.00
336;DHT22;156;48.738;9.228;2023-04-15T13:57:34;11.30;1.00
336;DHT22;156;48.738;9.228;2023-04-15T14:00:04;11.40;1.00
336;DHT22;156;48.738;9.228;2023-04-15T14:02:32;11.50;1.00
336;DHT22;156;48.738;9.228;2023-04-15T14:05:01;11.40;1.00
336;DHT22;156;48.738;9.228;2023-04-15T14:07:28;11.30;1.00
336;DHT22;156;48.738;9.228;2023-04-15T14:09:58;11.30;1.00
336;DHT22;156;48.738;9.228;2023-04-15T14:12:28;11.30;1.00
336;DHT22;156;48.738;9.228;2023-04-15T14:14:58;11.30;1.00
336;DHT22;156;48.738;9.228;2023-04-15T14:17:26;11.10;1.00
336;DHT22;156;48.738;9.228;2023-04-15T14:19:54;11.10;1.00
336;DHT22;156;48.738;9.228;2023-04-15T14:22:23;11.10;1.00
336;DHT22;156;48.738;9.228;2023-04-15T14:24:50;11.10;1.00
336;DHT22;156;48.738;9.228;2023-04-15T14:27:20;11.10;1.00
336;DHT22;156;48.738;9.228;2023-04-15T14:29:47;11.00;1.00
336;DHT22;156;48.738;9.228;2023-04-15T14:32:15;10.90;1.00
336;DHT22;156;48.738;9.228;2023-04-15T14:34:42;10.90;1.00
336;DHT22;156;48.738;9.228;2023-04-15T14:37:09;10.90;1.00
336;DHT22;156;48.738;9.228;2023-04-15T14:39:41;10.90;1.00
336;DHT22;156;48.738;9.228;2023-04-15T14:42:08;10.90;1.00
336;DHT22;156;48.738;9.228;2023-04-15T14:44:37;10.90;1.00
336;DHT22;156;48.738;9.228;2023-04-15T14:47:05;10.90;1.00
336;DHT22;156;48.738;9.228;2023-04-15T14:49:33;10.80;1.00
336;DHT22;156;48.738;9.228;2023-04-15T14:52:01;10.70;1.00
336;DHT22;156;48.738;9.228;2023-04-15T14:57:51;10.40;1.00
336;DHT22;156;48.738;9.228;2023-04-15T15:00:29;10.50;1.00
336;DHT22;156;48.738;9.228;2023-04-15T15:02:56;10.30;1.00
336;DHT22;156;48.738;9.228;2023-04-15T15:05:24;10.20;1.00
336;DHT22;156;48.738;9.228;2023-04-15T15:07:55;10.10;1.00
336;DHT22;156;48.738;9.228;2023-04-15T15:10:23;10.10;1.00
336;DHT22;156;48.738;9.228;2023-04-15T15:12:57;10.10;1.00
336;DHT22;156;48.738;9.228;2023-04-15T15:15:24;10.00;1.00
336;DHT22;156;48.738;9.228;2023-04-15T15:17:52;9.90;1.00
336;DHT22;156;48.738;9.228;2023-04-15T15:20:22;9.80;1.00
336;DHT22;156;48.738;9.228;2023-04-15T15:23:04;9.80;1.00
336;DHT22;156;48.738;9.228;2023-04-15T15:25:45;9.70;1.00
336;DHT22;156;48.738;9.228;2023-04-15T15:28:21;9.70;1.00
336;DHT22;156;48.738;9.228;2023-04-15T15:30:49;9.50;1.00
336;DHT22;156;48.738;9.228;2023-04-15T15:33:23;9.50;1.00
336;DHT22;156;48.738;9.228;2023-04-15T15:35:53;9.50;1.00
336;DHT22;156;48.738;9.228;2023-04-15T15:38:21;9.50;1.00
336;DHT22;156;48.738;9.228;2023-04-15T15:40:52;9.40;1.00
336;DHT22;156;48.738;9.228;2023-04-15T15:43:21;9.30;1.00
336;DHT22;156;48.738;9.228;2023-04-15T15:45:49;9.40;1.00
336;DHT22;156;48.738;9.228;2023-04-15T15:48:37;9.40;1.00
336;DHT22;156;48.738;9.228;2023-04-15T15:51:10;9.30;1.00
336;DHT22;156;48.738;9.228;2023-04-15T15:53:43;9.40;1.00
336;DHT22;156;48.738;9.228;2023-04-15T15:56:16;9.30;1.00
336;DHT22;156;48.738;9.228;2023-04-15T15:58:53;9.20;1.00
336;DHT22;156;48.738;9.228;2023-04-15T16:01:44;9.20;1.00
336;DHT22;156;48.738;9.228;2023-04-15T16:04:15;9.20;1.00
336;DHT22;156;48.738;9.228;2023-04-15T16:07:40;9.20;1.00
336;DHT22;156;48.738;9.228;2023-04-15T16:10:56;9.30;1.00
336;DHT22;156;48.738;9.228;2023-04-15T16:17:07;9.60;1.00
336;DHT22;156;48.738;9.228;2023-04-15T16:20:06;9.40;1.00
336;DHT22;156;48.738;9.228;2023-04-15T16:22:47;9.50;1.00
336;DHT22;156;48.738;9.228;2023-04-15T16:28:42;9.00;1.00
336;DHT22;156;48.738;9.228;2023-04-15T16:31:11;8.90;1.00
336;DHT22;156;48.738;9.228;2023-04-15T16:33:41;8.90;1.00
336;DHT22;156;48.738;9.228;2023-04-15T16:36:10;8.90;1.00
336;DHT22;156;48.738;9.228;2023-04-15T16:38:41;8.80;1.00
336;DHT22;156;48.738;9.228;2023-04-15T16:41:09;8.60;1.00
336;DHT22;156;48.738;9.228;2023-04-15T16:43:45;8.60;1.00
336;DHT22;156;48.738;9.228;2023-04-15T16:46:13;8.40;1.00
336;DHT22;156;48.738;9.228;2023-04-15T16:48:42;8.30;1.00
336;DHT22;156;48.738;9.228;2023-04-15T16:51:12;8.40;1.00
336;DHT22;156;48.738;9.228;2023-04-15T16:53:42;8.30;1.00
336;DHT22;156;48.738;9.228;2023-04-15T16:56:09;8.30;1.00
336;DHT22;156;48.738;9.228;2023-04-15T16:58:36;8.30;1.00
336;DHT22;156;48.738;9.228;2023-04-15T17:01:03;8.20;1.00
336;DHT22;156;48.738;9.228;2023-04-15T17:03:30;8.10;1.00
336;DHT22;156;48.738;9.228;2023-04-15T17:05:59;8.10;1.00
336;DHT22;156;48.738;9.228;2023-04-15T17:08:32;8.00;2.50
336;DHT22;156;48.738;9.228;2023-04-15T17:10:59;8.00;7.50
336;DHT22;156;48.738;9.228;2023-04-15T17:13:27;7.90;10.60
336;DHT22;156;48.738;9.228;2023-04-15T17:15:54;7.90;20.20
336;DHT22;156;48.738;9.228;2023-04-15T17:18:22;7.80;13.70
336;DHT22;156;48.738;9.228;2023-04-15T17:20:49;7.80;18.10
336;DHT22;156;48.738;9.228;2023-04-15T17:23:19;7.70;25.90
336;DHT22;156;48.738;9.228;2023-04-15T17:25:46;7.10;31.40
336;DHT22;156;48.738;9.228;2023-04-15T17:28:16;7.50;32.90
336;DHT22;156;48.738;9.228;2023-04-15T17:30:55;7.40;43.80
336;DHT22;156;48.738;9.228;2023-04-15T17:33:29;7.40;44.70
336;DHT22;156;48.738;9.228;2023-04-15T17:36:00;7.30;57.30
336;DHT22;156;48.738;9.228;2023-04-15T17:38:32;7.30;66.90
336;DHT22;156;48.738;9.228;2023-04-15T17:40:59;7.30;71.50
336;DHT22;156;48.738;9.228;2023-04-15T17:43:29;7.30;78.50
336;DHT22;156;48.738;9.228;2023-04-15T17:45:57;7.30;87.80